Time;durP1;ratioP1;P1;durP2;ratioP2;P2;SDS_P1;SDS_P2;PMS_P1;PMS_P2;Temp;Humidity;BMP_temperature;BMP_pressure;BME280_temperature;BME280_humidity;BME280_pressure;Samples;Min_cycle;Max_cycle;Signal;HPM_P1;HPM_P2
2021/04/08 00:02:07;;;;;;;;;;;-0.60;93.80;;;;;;4863660;29;20260;-90
2021/04/08 00:04:33;;;;;;;;;;;-0.60;94.20;;;;;;4863454;29;19963;-90
2021/04/08 00:06:58;;;;;;;;;;;-0.60;94.10;;;;;;4879986;29;20003;-89
2021/04/08 00:09:24;;;;;;;;;;;-0.60;93.90;;;;;;4863762;29;19907;-90
2021/04/08 00:11:50;;;;;;;;;;;-0.50;93.60;;;;;;4857323;29;19920;-89
2021/04/08 00:14:16;;;;;;;;;;;-0.40;93.60;;;;;;4876375;29;19912;-90
2021/04/08 00:16:42;;;;;;;;;;;-0.40;93.20;;;;;;4880436;29;19916;-89
2021/04/08 00:19:08;;;;;;;;;;;-0.50;93.00;;;;;;4863666;29;20527;-91
2021/04/08 00:21:34;;;;;;;;;;;-0.40;93.20;;;;;;4876772;29;19911;-89
2021/04/08 00:24:03;;;;;;;;;;;-0.50;92.80;;;;;;4849292;29;19927;-91
2021/04/08 00:26:29;;;;;;;;;;;-0.50;92.80;;;;;;4861280;29;19915;-91
2021/04/08 00:28:54;;;;;;;;;;;-0.50;92.90;;;;;;4860526;29;19908;-92
2021/04/08 00:31:20;;;;;;;;;;;-0.60;92.80;;;;;;4845219;29;19927;-92
2021/04/08 00:33:45;;;;;;;;;;;-0.60;92.80;;;;;;4859841;29;19912;-91
2021/04/08 00:36:11;;;;;;;;;;;-0.70;93.10;;;;;;4841126;29;20053;-89
2021/04/08 00:38:37;;;;;;;;;;;-0.60;93.30;;;;;;4852777;29;19916;-90
2021/04/08 00:41:03;;;;;;;;;;;-0.60;93.10;;;;;;4860713;29;20370;-90
2021/04/08 00:43:28;;;;;;;;;;;-0.60;93.00;;;;;;4866619;29;19919;-91
2021/04/08 00:45:54;;;;;;;;;;;-0.60;92.80;;;;;;4876149;29;19908;-92
2021/04/08 00:48:19;;;;;;;;;;;-0.60;92.80;;;;;;4867753;29;20276;-89
2021/04/08 00:50:45;;;;;;;;;;;-0.70;92.70;;;;;;4868547;29;20018;-90
2021/04/08 00:53:13;;;;;;;;;;;-0.50;92.60;;;;;;4862244;29;20330;-91
2021/04/08 00:55:47;;;;;;;;;;;-0.50;92.90;;;;;;4866585;29;19927;-88
2021/04/08 00:58:13;;;;;;;;;;;-0.40;92.90;;;;;;4860896;29;19919;-91
2021/04/08 01:00:42;;;;;;;;;;;-0.40;93.10;;;;;;4861228;29;20017;-91
2021/04/08 01:03:14;;;;;;;;;;;-0.40;93.60;;;;;;4853218;29;19912;-90
2021/04/08 01:05:40;;;;;;;;;;;-0.30;93.40;;;;;;4844636;29;19938;-88
2021/04/08 01:08:06;;;;;;;;;;;-0.30;93.80;;;;;;4844966;29;20442;-90
2021/04/08 01:10:34;;;;;;;;;;;-0.30;93.80;;;;;;4844257;29;20030;-88
2021/04/08 01:13:02;;;;;;;;;;;-0.10;94.00;;;;;;4842863;29;19916;-89
2021/04/08 01:15:31;;;;;;;;;;;-0.10;93.70;;;;;;4873985;29;19927;-89
2021/04/08 01:18:02;;;;;;;;;;;-0.10;93.60;;;;;;4853247;29;19919;-89
2021/04/08 01:20:27;;;;;;;;;;;-0.10;93.60;;;;;;4844188;29;20012;-90
2021/04/08 01:22:53;;;;;;;;;;;-0.10;93.70;;;;;;4860189;29;20041;-89
2021/04/08 01:25:21;;;;;;;;;;;0.00;93.60;;;;;;4845558;29;20036;-91
2021/04/08 01:27:47;;;;;;;;;;;0.00;93.50;;;;;;4842592;29;20018;-90
2021/04/08 01:30:45;;;;;;;;;;;0.00;93.30;;;;;;4847604;29;20006;-90
2021/04/08 01:33:15;;;;;;;;;;;0.10;93.40;;;;;;4862098;29;19912;-89
2021/04/08 01:35:44;;;;;;;;;;;0.20;93.30;;;;;;4862392;29;20048;-90
2021/04/08 01:38:18;;;;;;;;;;;0.30;93.20;;;;;;4856098;29;19948;-92
2021/04/08 01:40:44;;;;;;;;;;;0.40;93.10;;;;;;4846141;29;19946;-89
2021/04/08 01:43:39;;;;;;;;;;;0.40;93.10;;;;;;4866747;29;19973;-90
2021/04/08 01:46:13;;;;;;;;;;;0.40;93.10;;;;;;4854965;29;19928;-89
2021/04/08 01:48:42;;;;;;;;;;;0.50;93.10;;;;;;4840840;29;20363;-89
2021/04/08 01:51:11;;;;;;;;;;;0.50;93.30;;;;;;4843855;29;19917;-91
2021/04/08 01:53:46;;;;;;;;;;;0.50;93.30;;;;;;4847741;29;19923;-90
2021/04/08 01:56:12;;;;;;;;;;;0.50;93.10;;;;;;4831894;29;19923;-92
2021/04/08 01:58:38;;;;;;;;;;;0.50;93.10;;;;;;4860603;29;19952;-91
2021/04/08 02:01:04;;;;;;;;;;;0.60;93.40;;;;;;4844826;29;19951;-90
2021/04/08 02:03:36;;;;;;;;;;;0.60;93.50;;;;;;4851431;29;19922;-93
2021/04/08 02:06:09;;;;;;;;;;;0.60;93.30;;;;;;4849630;29;19939;-92
2021/04/08 02:08:36;;;;;;;;;;;0.60;93.10;;;;;;4849725;29;19939;-92
2021/04/08 02:11:05;;;;;;;;;;;0.60;93.20;;;;;;4860714;29;20693;-91
2021/04/08 02:13:30;;;;;;;;;;;0.70;93.10;;;;;;4843548;29;20050;-91
2021/04/08 02:16:03;;;;;;;;;;;0.70;92.90;;;;;;4858230;29;20133;-92
2021/04/08 02:18:29;;;;;;;;;;;0.80;92.80;;;;;;4861684;29;19916;-90
2021/04/08 02:20:55;;;;;;;;;;;0.80;92.90;;;;;;4861554;29;19909;-90
2021/04/08 02:23:38;;;;;;;;;;;0.80;93.10;;;;;;4892947;29;19918;-92
2021/04/08 02:26:08;;;;;;;;;;;0.80;93.00;;;;;;4881959;29;19964;-91
2021/04/08 02:28:38;;;;;;;;;;;0.80;92.90;;;;;;4899494;29;19915;-92
2021/04/08 02:31:10;;;;;;;;;;;0.70;92.80;;;;;;4883361;29;20371;-91
2021/04/08 02:33:39;;;;;;;;;;;0.70;93.00;;;;;;4866094;29;19912;-90
2021/04/08 02:36:08;;;;;;;;;;;0.70;93.00;;;;;;4889442;29;20371;-90
2021/04/08 02:38:36;;;;;;;;;;;0.70;93.20;;;;;;4865300;29;20008;-89
2021/04/08 02:41:06;;;;;;;;;;;0.70;93.30;;;;;;4866434;29;19915;-90
2021/04/08 02:43:32;;;;;;;;;;;0.70;93.40;;;;;;4869451;29;19968;-92
2021/04/08 02:45:58;;;;;;;;;;;0.70;93.40;;;;;;4867255;29;19912;-89
2021/04/08 02:48:25;;;;;;;;;;;0.70;93.20;;;;;;4881826;29;19912;-90
2021/04/08 02:50:51;;;;;;;;;;;0.70;93.30;;;;;;4868433;29;19966;-91
2021/04/08 02:53:26;;;;;;;;;;;0.80;93.20;;;;;;4866829;29;19916;-91
2021/04/08 02:56:05;;;;;;;;;;;0.80;93.10;;;;;;4881558;29;19915;-90
2021/04/08 02:58:31;;;;;;;;;;;0.80;93.20;;;;;;4863703;29;20332;-92
2021/04/08 03:01:01;;;;;;;;;;;0.80;93.20;;;;;;4878470;29;19922;-91
2021/04/08 03:03:30;;;;;;;;;;;0.90;93.30;;;;;;4882899;29;20355;-91
2021/04/08 03:06:00;;;;;;;;;;;0.80;93.00;;;;;;4864709;29;19912;-90
2021/04/08 03:08:26;;;;;;;;;;;0.90;93.20;;;;;;4881139;29;19915;-90
2021/04/08 03:10:52;;;;;;;;;;;0.90;93.20;;;;;;4880864;29;19915;-90
2021/04/08 03:13:22;;;;;;;;;;;0.90;93.20;;;;;;4880941;29;19918;-93
2021/04/08 03:15:48;;;;;;;;;;;1.00;93.10;;;;;;4884617;29;19920;-90
2021/04/08 03:18:16;;;;;;;;;;;1.00;93.00;;;;;;4864520;29;19915;-91
2021/04/08 03:20:43;;;;;;;;;;;1.00;93.00;;;;;;4887919;29;19922;-91
2021/04/08 03:23:10;;;;;;;;;;;0.90;93.10;;;;;;4881755;29;20008;-91
2021/04/08 03:25:37;;;;;;;;;;;1.00;93.10;;;;;;4881391;29;19980;-90
2021/04/08 03:28:03;;;;;;;;;;;1.00;93.00;;;;;;4882855;29;19907;-89
2021/04/08 03:30:32;;;;;;;;;;;1.00;92.90;;;;;;4880348;29;20270;-91
2021/04/08 03:32:58;;;;;;;;;;;1.10;92.90;;;;;;4863156;29;19911;-89
2021/04/08 03:35:24;;;;;;;;;;;1.10;92.80;;;;;;4880917;29;19912;-90
2021/04/08 03:37:50;;;;;;;;;;;1.10;92.90;;;;;;4880814;29;20294;-92
2021/04/08 03:40:15;;;;;;;;;;;1.10;92.80;;;;;;4886379;29;19912;-89
2021/04/08 03:42:41;;;;;;;;;;;1.10;92.60;;;;;;4883409;29;19913;-91
2021/04/08 03:45:11;;;;;;;;;;;1.10;92.80;;;;;;4888870;29;19916;-90
2021/04/08 03:47:41;;;;;;;;;;;1.00;92.60;;;;;;4880541;29;19916;-92
2021/04/08 03:50:07;;;;;;;;;;;1.00;92.80;;;;;;4880568;29;19927;-89
2021/04/08 03:52:33;;;;;;;;;;;1.00;92.80;;;;;;4880413;29;19911;-90
2021/04/08 03:54:59;;;;;;;;;;;1.00;92.80;;;;;;4878718;29;19964;-89
2021/04/08 03:57:28;;;;;;;;;;;1.00;93.00;;;;;;4880037;29;19912;-91
2021/04/08 03:59:56;;;;;;;;;;;0.90;92.80;;;;;;4880193;29;20481;-89
2021/04/08 04:02:27;;;;;;;;;;;1.00;92.80;;;;;;4879976;29;19916;-91
2021/04/08 04:04:52;;;;;;;;;;;1.00;92.70;;;;;;4864005;29;19956;-91
2021/04/08 04:07:21;;;;;;;;;;;1.10;92.80;;;;;;4863727;29;20006;-89
2021/04/08 04:09:47;;;;;;;;;;;1.00;92.80;;;;;;4863943;29;20007;-91
2021/04/08 04:12:14;;;;;;;;;;;1.10;92.80;;;;;;4859778;29;20024;-90
2021/04/08 04:14:41;;;;;;;;;;;1.10;92.70;;;;;;4877000;29;20347;-90
2021/04/08 04:17:36;;;;;;;;;;;1.20;92.70;;;;;;4881542;29;20256;-91
2021/04/08 04:20:03;;;;;;;;;;;1.20;92.70;;;;;;4870437;29;19915;-92
2021/04/08 04:22:28;;;;;;;;;;;1.30;92.60;;;;;;4860551;29;19912;-90
2021/04/08 04:24:54;;;;;;;;;;;1.30;92.50;;;;;;4874056;29;19908;-90
2021/04/08 04:27:19;;;;;;;;;;;1.40;92.50;;;;;;4874438;29;20268;-91
2021/04/08 04:29:45;;;;;;;;;;;1.40;92.40;;;;;;4863265;29;19911;-91
2021/04/08 04:32:11;;;;;;;;;;;1.50;92.20;;;;;;4880412;29;20331;-91
2021/04/08 04:34:42;;;;;;;;;;;1.50;92.50;;;;;;4880417;29;20324;-91
2021/04/08 04:37:10;;;;;;;;;;;1.50;92.50;;;;;;4879428;29;20341;-91
2021/04/08 04:39:36;;;;;;;;;;;1.50;92.40;;;;;;4880088;29;19939;-90
2021/04/08 04:42:02;;;;;;;;;;;1.60;92.20;;;;;;4862715;29;20327;-90
2021/04/08 04:44:29;;;;;;;;;;;1.60;92.10;;;;;;4863738;29;20363;-90
2021/04/08 04:46:57;;;;;;;;;;;1.60;92.10;;;;;;4880234;29;19998;-90
2021/04/08 04:49:26;;;;;;;;;;;1.70;92.10;;;;;;4882200;29;19954;-90
2021/04/08 04:51:51;;;;;;;;;;;1.70;92.10;;;;;;4887184;29;20302;-91
2021/04/08 04:54:17;;;;;;;;;;;1.70;92.00;;;;;;4880028;29;19908;-90
2021/04/08 04:56:43;;;;;;;;;;;1.80;92.20;;;;;;4875351;29;19908;-92
2021/04/08 04:59:08;;;;;;;;;;;1.70;92.00;;;;;;4865443;29;19911;-90
2021/04/08 05:01:34;;;;;;;;;;;1.80;92.10;;;;;;4897564;29;19980;-90
2021/04/08 05:03:59;;;;;;;;;;;1.80;92.00;;;;;;4880755;29;20294;-93
2021/04/08 05:06:25;;;;;;;;;;;1.90;92.00;;;;;;4863524;29;20044;-91
2021/04/08 05:08:53;;;;;;;;;;;1.90;92.10;;;;;;4862637;29;19920;-91
2021/04/08 05:11:18;;;;;;;;;;;1.90;92.20;;;;;;4879671;29;19919;-91
2021/04/08 05:13:44;;;;;;;;;;;1.90;92.00;;;;;;4878504;29;20267;-92
2021/04/08 05:16:09;;;;;;;;;;;2.00;92.00;;;;;;4863090;29;19924;-89
2021/04/08 05:18:35;;;;;;;;;;;2.10;91.90;;;;;;4867418;29;19919;-89
2021/04/08 05:21:00;;;;;;;;;;;2.10;92.00;;;;;;4880496;29;19916;-91
2021/04/08 05:23:26;;;;;;;;;;;2.10;91.90;;;;;;4879337;29;19918;-91
2021/04/08 05:25:52;;;;;;;;;;;2.10;91.80;;;;;;4878643;29;19947;-90
2021/04/08 05:28:17;;;;;;;;;;;2.20;91.90;;;;;;4878264;29;20366;-90
2021/04/08 05:30:43;;;;;;;;;;;2.20;91.70;;;;;;4881492;29;20382;-90
2021/04/08 05:33:09;;;;;;;;;;;2.30;91.70;;;;;;4887469;29;20394;-92
2021/04/08 05:35:34;;;;;;;;;;;2.30;91.60;;;;;;4875691;29;20006;-92
2021/04/08 05:38:00;;;;;;;;;;;2.30;91.50;;;;;;4878424;29;19928;-92
2021/04/08 05:40:25;;;;;;;;;;;2.40;91.50;;;;;;4883211;29;19922;-92
2021/04/08 05:42:51;;;;;;;;;;;2.40;91.50;;;;;;4880486;29;20371;-92
2021/04/08 05:45:18;;;;;;;;;;;2.40;91.50;;;;;;4885853;29;19923;-90
2021/04/08 05:47:44;;;;;;;;;;;2.50;91.40;;;;;;4879021;29;19908;-91
2021/04/08 05:50:10;;;;;;;;;;;2.40;91.50;;;;;;4879477;29;19916;-90
2021/04/08 05:52:35;;;;;;;;;;;2.50;91.40;;;;;;4879280;29;19908;-91
2021/04/08 05:55:01;;;;;;;;;;;2.50;91.30;;;;;;4877940;29;20286;-90
2021/04/08 05:57:28;;;;;;;;;;;2.50;91.30;;;;;;4879188;29;19908;-90
2021/04/08 05:59:54;;;;;;;;;;;2.50;91.30;;;;;;4891349;29;19926;-91
2021/04/08 06:02:19;;;;;;;;;;;2.60;91.50;;;;;;4873244;29;19912;-90
2021/04/08 06:04:45;;;;;;;;;;;2.70;91.50;;;;;;4860451;29;19908;-91
2021/04/08 06:07:10;;;;;;;;;;;2.70;91.10;;;;;;4877563;29;20369;-90
2021/04/08 06:09:36;;;;;;;;;;;2.70;91.10;;;;;;4862286;29;20401;-90
2021/04/08 06:12:01;;;;;;;;;;;2.70;91.30;;;;;;4858140;29;20291;-90
2021/04/08 06:14:27;;;;;;;;;;;2.70;91.60;;;;;;4877496;29;19916;-92
2021/04/08 06:16:53;;;;;;;;;;;2.70;91.50;;;;;;4860313;29;21355;-91
2021/04/08 06:19:18;;;;;;;;;;;2.70;91.40;;;;;;4862832;29;19971;-92
2021/04/08 06:21:44;;;;;;;;;;;2.70;91.50;;;;;;4855734;29;19916;-90
2021/04/08 06:24:09;;;;;;;;;;;2.60;91.60;;;;;;4859385;29;19922;-90
2021/04/08 06:26:35;;;;;;;;;;;2.70;91.60;;;;;;4861825;29;19919;-91
2021/04/08 06:29:01;;;;;;;;;;;2.70;91.60;;;;;;4863102;29;20348;-91
2021/04/08 06:31:27;;;;;;;;;;;2.80;91.60;;;;;;4878918;29;20006;-91
2021/04/08 06:33:53;;;;;;;;;;;2.80;91.80;;;;;;4866324;29;19911;-90
2021/04/08 06:36:20;;;;;;;;;;;2.80;91.60;;;;;;4867089;29;19991;-89
2021/04/08 06:38:46;;;;;;;;;;;2.80;91.60;;;;;;4870367;29;19912;-90
2021/04/08 06:41:11;;;;;;;;;;;2.90;91.70;;;;;;4862740;29;20360;-89
2021/04/08 06:43:38;;;;;;;;;;;2.90;92.00;;;;;;4863658;29;19916;-89
2021/04/08 06:46:04;;;;;;;;;;;2.80;91.90;;;;;;4863265;29;19912;-88
2021/04/08 06:48:38;;;;;;;;;;;2.90;91.90;;;;;;4852976;29;20413;-90
2021/04/08 06:51:07;;;;;;;;;;;2.80;91.80;;;;;;4861548;29;19920;-88
2021/04/08 06:53:33;;;;;;;;;;;2.80;92.00;;;;;;4861787;29;20319;-88
2021/04/08 06:55:59;;;;;;;;;;;2.80;92.10;;;;;;4862568;29;19912;-88
2021/04/08 06:58:24;;;;;;;;;;;2.80;92.20;;;;;;4870178;29;20117;-89
2021/04/08 07:00:50;;;;;;;;;;;2.80;92.30;;;;;;4864846;29;19961;-90
2021/04/08 07:03:16;;;;;;;;;;;2.80;92.50;;;;;;4862685;29;19985;-90
2021/04/08 07:05:42;;;;;;;;;;;2.70;92.40;;;;;;4871482;29;19916;-88
2021/04/08 07:08:07;;;;;;;;;;;2.70;92.50;;;;;;4860216;29;20356;-91
2021/04/08 07:10:33;;;;;;;;;;;2.70;92.50;;;;;;4864407;29;19928;-88
2021/04/08 07:12:58;;;;;;;;;;;2.80;92.50;;;;;;4863418;29;19912;-88
2021/04/08 07:15:24;;;;;;;;;;;2.80;92.60;;;;;;4871373;29;19920;-88
2021/04/08 07:17:50;;;;;;;;;;;2.80;92.80;;;;;;4883718;29;19994;-89
2021/04/08 07:20:15;;;;;;;;;;;2.80;92.70;;;;;;4871824;29;19916;-89
2021/04/08 07:22:41;;;;;;;;;;;2.80;92.90;;;;;;4880140;29;19912;-88
2021/04/08 07:25:17;;;;;;;;;;;2.80;92.90;;;;;;4887680;29;19912;-88
2021/04/08 07:27:43;;;;;;;;;;;2.90;92.80;;;;;;4882193;29;19934;-88
2021/04/08 07:30:10;;;;;;;;;;;2.90;92.90;;;;;;4873487;29;20397;-89
2021/04/08 07:32:36;;;;;;;;;;;2.90;92.90;;;;;;4880786;29;20445;-90
2021/04/08 07:35:05;;;;;;;;;;;2.90;93.10;;;;;;4882460;29;19912;-87
2021/04/08 07:37:34;;;;;;;;;;;3.00;92.90;;;;;;4886103;29;19919;-87
2021/04/08 07:40:14;;;;;;;;;;;3.00;93.00;;;;;;4876804;29;19971;-87
2021/04/08 07:42:39;;;;;;;;;;;3.10;93.00;;;;;;4883925;29;19946;-88
2021/04/08 07:45:05;;;;;;;;;;;3.10;92.90;;;;;;4879974;29;19955;-89
2021/04/08 07:47:34;;;;;;;;;;;3.20;92.90;;;;;;4882311;29;19915;-88
2021/04/08 07:50:05;;;;;;;;;;;3.40;93.00;;;;;;4880222;29;19936;-88
2021/04/08 07:52:31;;;;;;;;;;;3.50;92.60;;;;;;4866899;29;19916;-89
2021/04/08 07:54:57;;;;;;;;;;;3.50;92.50;;;;;;4889874;29;20386;-88
2021/04/08 07:57:22;;;;;;;;;;;3.60;92.60;;;;;;4883668;29;20427;-88
2021/04/08 07:59:48;;;;;;;;;;;3.70;92.60;;;;;;4879804;29;20484;-89
2021/04/08 08:02:13;;;;;;;;;;;3.80;92.60;;;;;;4882106;29;19912;-89
2021/04/08 08:04:39;;;;;;;;;;;3.90;92.50;;;;;;4889169;29;19908;-87
2021/04/08 08:07:04;;;;;;;;;;;4.10;92.60;;;;;;4878899;29;19922;-88
2021/04/08 08:09:31;;;;;;;;;;;4.10;92.50;;;;;;4885927;29;20275;-90
2021/04/08 08:11:57;;;;;;;;;;;4.20;92.20;;;;;;4863488;29;20654;-87
2021/04/08 08:14:32;;;;;;;;;;;4.40;92.60;;;;;;4878178;29;19919;-86
2021/04/08 08:17:02;;;;;;;;;;;4.50;91.30;;;;;;4882306;29;19998;-92
2021/04/08 08:19:29;;;;;;;;;;;4.70;91.60;;;;;;4882613;29;20339;-90
2021/04/08 08:21:54;;;;;;;;;;;4.90;91.50;;;;;;4881063;29;19927;-90
2021/04/08 08:24:21;;;;;;;;;;;4.90;90.60;;;;;;4885647;29;20306;-91
2021/04/08 08:26:47;;;;;;;;;;;5.00;91.30;;;;;;4863195;29;19916;-90
2021/04/08 08:29:17;;;;;;;;;;;5.30;90.80;;;;;;4886829;29;19912;-91
2021/04/08 08:31:44;;;;;;;;;;;5.50;90.70;;;;;;4877811;29;20022;-91
2021/04/08 08:34:30;;;;;;;;;;;5.60;90.00;;;;;;4879794;29;19951;-89
2021/04/08 08:37:00;;;;;;;;;;;5.90;90.20;;;;;;4879133;29;20282;-91
2021/04/08 08:39:27;;;;;;;;;;;6.20;89.80;;;;;;4874524;29;19963;-91
2021/04/08 08:41:53;;;;;;;;;;;6.30;88.50;;;;;;4885881;29;19920;-91
2021/04/08 08:44:19;;;;;;;;;;;6.40;88.10;;;;;;4866342;29;19912;-91
2021/04/08 08:46:46;;;;;;;;;;;6.20;86.50;;;;;;4886943;29;20552;-90
2021/04/08 08:49:13;;;;;;;;;;;6.00;85.40;;;;;;4887313;29;19911;-89
2021/04/08 08:51:39;;;;;;;;;;;5.70;86.40;;;;;;4886712;29;19984;-89
2021/04/08 08:54:05;;;;;;;;;;;5.50;87.30;;;;;;4880387;29;19912;-89
2021/04/08 08:56:33;;;;;;;;;;;5.30;87.50;;;;;;4883766;29;19916;-88
2021/04/08 08:58:59;;;;;;;;;;;5.30;88.30;;;;;;4881903;29;19919;-90
2021/04/08 09:01:24;;;;;;;;;;;5.20;89.40;;;;;;4869989;29;20010;-89
2021/04/08 09:03:51;;;;;;;;;;;5.00;90.10;;;;;;4877845;29;20389;-86
2021/04/08 09:06:20;;;;;;;;;;;4.90;90.20;;;;;;4883454;29;19916;-89
2021/04/08 09:08:51;;;;;;;;;;;5.00;90.40;;;;;;4879801;29;19912;-91
2021/04/08 09:11:30;;;;;;;;;;;4.90;90.00;;;;;;4877107;29;19920;-89
2021/04/08 09:13:57;;;;;;;;;;;4.90;90.50;;;;;;4884467;29;19908;-90
2021/04/08 09:16:22;;;;;;;;;;;4.80;90.50;;;;;;4889086;29;20298;-91
2021/04/08 09:18:58;;;;;;;;;;;4.80;91.00;;;;;;4884017;29;19920;-90
2021/04/08 09:21:24;;;;;;;;;;;4.80;91.00;;;;;;4878328;29;19911;-89
2021/04/08 09:24:05;;;;;;;;;;;4.90;90.90;;;;;;4880117;29;19923;-88
2021/04/08 09:26:35;;;;;;;;;;;5.00;91.20;;;;;;4882213;29;20038;-89
2021/04/08 09:29:00;;;;;;;;;;;5.10;90.80;;;;;;4883600;29;19912;-88
2021/04/08 09:31:26;;;;;;;;;;;5.10;90.30;;;;;;4886331;29;19949;-90
2021/04/08 09:33:54;;;;;;;;;;;5.30;90.30;;;;;;4881961;29;19980;-89
2021/04/08 09:36:26;;;;;;;;;;;5.40;90.80;;;;;;4880456;29;19940;-90
2021/04/08 09:38:55;;;;;;;;;;;5.50;91.00;;;;;;4883861;29;19927;-90
2021/04/08 09:41:39;;;;;;;;;;;5.60;90.60;;;;;;4879421;29;19957;-90
2021/04/08 09:44:06;;;;;;;;;;;5.90;90.50;;;;;;4887927;29;19918;-92
2021/04/08 09:46:42;;;;;;;;;;;6.30;91.00;;;;;;4870578;29;19916;-91
2021/04/08 09:49:08;;;;;;;;;;;6.50;89.70;;;;;;4875090;29;19922;-90
2021/04/08 09:51:38;;;;;;;;;;;6.50;86.40;;;;;;4878484;29;19927;-91
2021/04/08 09:54:06;;;;;;;;;;;6.50;86.50;;;;;;4884685;29;19931;-91
2021/04/08 09:56:46;;;;;;;;;;;6.40;84.50;;;;;;4859680;29;19912;-90
2021/04/08 09:59:13;;;;;;;;;;;6.30;83.30;;;;;;4886351;29;19979;-89
2021/04/08 10:01:38;;;;;;;;;;;6.30;85.50;;;;;;4889993;29;19940;-90
2021/04/08 10:04:13;;;;;;;;;;;6.40;85.20;;;;;;4887930;29;20011;-91
2021/04/08 10:06:39;;;;;;;;;;;6.20;84.90;;;;;;4865535;29;19996;-92
2021/04/08 10:09:05;;;;;;;;;;;6.30;86.60;;;;;;4887486;29;19922;-92
2021/04/08 10:11:31;;;;;;;;;;;6.30;86.70;;;;;;4887547;29;19930;-89
2021/04/08 10:13:57;;;;;;;;;;;6.50;85.70;;;;;;4889259;29;19915;-90
2021/04/08 10:16:22;;;;;;;;;;;6.30;85.50;;;;;;4884594;29;19928;-89
2021/04/08 10:18:57;;;;;;;;;;;6.40;86.30;;;;;;4880183;29;19915;-90
2021/04/08 10:21:23;;;;;;;;;;;6.50;86.20;;;;;;4882291;29;19923;-89
2021/04/08 10:23:50;;;;;;;;;;;6.40;84.80;;;;;;4888545;29;20262;-89
2021/04/08 10:26:16;;;;;;;;;;;6.20;85.90;;;;;;4865450;29;19918;-90
2021/04/08 10:28:44;;;;;;;;;;;6.20;87.00;;;;;;4888494;29;19915;-89
2021/04/08 10:31:15;;;;;;;;;;;6.10;86.20;;;;;;4884738;29;19930;-90
2021/04/08 10:33:41;;;;;;;;;;;6.10;87.30;;;;;;4867420;29;19938;-91
2021/04/08 10:36:06;;;;;;;;;;;5.90;87.00;;;;;;4885978;29;19915;-89
2021/04/08 10:38:32;;;;;;;;;;;6.10;86.80;;;;;;4886673;29;19915;-88
2021/04/08 10:40:58;;;;;;;;;;;6.20;86.50;;;;;;4892316;29;20407;-89
2021/04/08 10:43:23;;;;;;;;;;;6.20;86.30;;;;;;4885918;29;19919;-90
2021/04/08 10:45:53;;;;;;;;;;;6.30;86.70;;;;;;4883467;29;20336;-90
2021/04/08 10:48:19;;;;;;;;;;;6.50;85.60;;;;;;4880450;29;19908;-89
2021/04/08 10:50:45;;;;;;;;;;;6.80;86.10;;;;;;4886859;29;19972;-93
2021/04/08 10:53:11;;;;;;;;;;;6.90;84.60;;;;;;4888180;29;19915;-90
2021/04/08 10:55:36;;;;;;;;;;;6.80;84.80;;;;;;4879350;29;19967;-88
2021/04/08 10:58:02;;;;;;;;;;;6.70;84.40;;;;;;4884572;29;20006;-88
2021/04/08 11:00:28;;;;;;;;;;;6.60;83.50;;;;;;4889769;29;19967;-89
2021/04/08 11:02:54;;;;;;;;;;;6.10;84.50;;;;;;4886874;29;19912;-88
2021/04/08 11:05:21;;;;;;;;;;;6.10;85.00;;;;;;4886026;29;19926;-87
2021/04/08 11:07:52;;;;;;;;;;;6.00;85.10;;;;;;4890823;29;19919;-88
2021/04/08 11:10:22;;;;;;;;;;;5.80;86.00;;;;;;4883678;29;19920;-87
2021/04/08 11:12:49;;;;;;;;;;;6.10;86.40;;;;;;4878914;29;19939;-88
2021/04/08 11:15:15;;;;;;;;;;;6.10;86.40;;;;;;4889310;29;19920;-88
2021/04/08 11:17:44;;;;;;;;;;;6.20;85.90;;;;;;4864780;29;19920;-86
2021/04/08 11:20:10;;;;;;;;;;;6.40;85.40;;;;;;4876546;29;19927;-88
2021/04/08 11:22:40;;;;;;;;;;;6.40;85.60;;;;;;4879367;29;20377;-88
2021/04/08 11:25:07;;;;;;;;;;;6.30;84.90;;;;;;4878978;29;19916;-88
2021/04/08 11:27:36;;;;;;;;;;;6.20;85.30;;;;;;4864099;29;19919;-89
2021/04/08 11:30:03;;;;;;;;;;;6.00;85.80;;;;;;4886765;29;19918;-89
2021/04/08 11:32:29;;;;;;;;;;;5.90;86.50;;;;;;4871861;29;19915;-91
2021/04/08 11:34:57;;;;;;;;;;;5.90;87.20;;;;;;4873084;29;20421;-90
2021/04/08 11:37:38;;;;;;;;;;;6.00;87.60;;;;;;4879719;29;19911;-90
2021/04/08 11:40:05;;;;;;;;;;;6.00;86.80;;;;;;4887173;29;19911;-89
2021/04/08 11:42:35;;;;;;;;;;;6.30;88.10;;;;;;4879523;29;19931;-90
2021/04/08 11:45:20;;;;;;;;;;;6.50;84.50;;;;;;4886300;29;20483;-89
2021/04/08 11:48:04;;;;;;;;;;;6.70;83.30;;;;;;4883858;29;20105;-91
2021/04/08 11:50:34;;;;;;;;;;;6.80;81.50;;;;;;4885694;29;19943;-89
2021/04/08 11:53:00;;;;;;;;;;;7.00;80.80;;;;;;4888655;29;20318;-91
2021/04/08 11:55:33;;;;;;;;;;;7.10;80.80;;;;;;4876779;29;20211;-91
2021/04/08 11:57:59;;;;;;;;;;;7.40;81.20;;;;;;4882422;29;19923;-89
2021/04/08 12:00:26;;;;;;;;;;;7.50;80.70;;;;;;4886140;29;19946;-90
2021/04/08 12:02:52;;;;;;;;;;;7.60;80.30;;;;;;4883912;29;19911;-91
2021/04/08 12:05:18;;;;;;;;;;;7.80;80.50;;;;;;4888139;29;19920;-91
2021/04/08 12:07:45;;;;;;;;;;;8.10;79.40;;;;;;4870752;29;20012;-91
2021/04/08 12:10:23;;;;;;;;;;;8.30;77.50;;;;;;4890162;29;19919;-90
2021/04/08 12:12:53;;;;;;;;;;;8.50;74.90;;;;;;4887507;29;20056;-92
2021/04/08 12:15:30;;;;;;;;;;;8.60;74.40;;;;;;4879104;29;19923;-91
2021/04/08 12:17:55;;;;;;;;;;;8.40;71.90;;;;;;4850534;29;19912;-91
2021/04/08 12:20:21;;;;;;;;;;;8.60;71.20;;;;;;4871928;29;19919;-91
2021/04/08 12:22:47;;;;;;;;;;;8.50;71.00;;;;;;4863134;29;19923;-90
2021/04/08 12:25:13;;;;;;;;;;;8.60;71.70;;;;;;4866707;29;19922;-91
2021/04/08 12:27:39;;;;;;;;;;;8.30;71.10;;;;;;4863373;29;19924;-90
2021/04/08 12:30:06;;;;;;;;;;;8.20;72.20;;;;;;4868586;29;20475;-91
2021/04/08 12:32:32;;;;;;;;;;;8.20;73.60;;;;;;4873738;29;19920;-91
2021/04/08 12:34:58;;;;;;;;;;;8.10;74.30;;;;;;4865992;29;19918;-91
2021/04/08 12:37:25;;;;;;;;;;;7.80;73.90;;;;;;4870984;29;19908;-91
2021/04/08 12:39:51;;;;;;;;;;;7.60;73.80;;;;;;4875328;29;20447;-92
2021/04/08 12:42:17;;;;;;;;;;;7.50;73.20;;;;;;4873601;29;19923;-89
2021/04/08 12:44:43;;;;;;;;;;;7.40;74.90;;;;;;4870306;29;19912;-89
2021/04/08 12:47:09;;;;;;;;;;;6.80;78.20;;;;;;4852458;29;19979;-91
2021/04/08 12:49:35;;;;;;;;;;;6.30;81.40;;;;;;4857322;29;19950;-92
2021/04/08 12:52:01;;;;;;;;;;;5.90;83.10;;;;;;4867277;29;20730;-90
2021/04/08 12:54:26;;;;;;;;;;;5.40;84.70;;;;;;4865831;29;19916;-92
2021/04/08 12:56:52;;;;;;;;;;;5.00;87.60;;;;;;4861524;29;19915;-92
2021/04/08 12:59:18;;;;;;;;;;;4.70;89.00;;;;;;4863929;29;19955;-90
2021/04/08 13:01:43;;;;;;;;;;;4.50;90.70;;;;;;4866795;29;20343;-88
2021/04/08 13:04:09;;;;;;;;;;;4.50;90.90;;;;;;4865923;29;20439;-90
2021/04/08 13:06:34;;;;;;;;;;;4.40;90.90;;;;;;4868871;29;20469;-90
2021/04/08 13:09:00;;;;;;;;;;;4.30;91.30;;;;;;4859319;29;20015;-89
2021/04/08 13:11:25;;;;;;;;;;;4.30;91.70;;;;;;4868927;29;19959;-90
2021/04/08 13:13:51;;;;;;;;;;;4.30;91.30;;;;;;4862142;29;19916;-89
2021/04/08 13:16:16;;;;;;;;;;;4.30;91.20;;;;;;4876761;29;20374;-89
2021/04/08 13:18:44;;;;;;;;;;;4.50;91.30;;;;;;4878928;29;20302;-90
2021/04/08 13:21:09;;;;;;;;;;;4.70;91.00;;;;;;4879431;29;19911;-88
2021/04/08 13:23:35;;;;;;;;;;;4.90;91.00;;;;;;4885988;29;19908;-88
2021/04/08 13:26:00;;;;;;;;;;;5.10;90.80;;;;;;4877358;29;19920;-90
2021/04/08 13:28:26;;;;;;;;;;;5.30;90.10;;;;;;4885719;29;19922;-89
2021/04/08 13:30:52;;;;;;;;;;;5.50;89.70;;;;;;4870298;29;19919;-92
2021/04/08 13:33:17;;;;;;;;;;;5.70;88.20;;;;;;4875710;29;20010;-91
2021/04/08 13:35:43;;;;;;;;;;;5.90;88.00;;;;;;4887357;29;19990;-91
2021/04/08 13:38:09;;;;;;;;;;;6.10;88.60;;;;;;4884209;29;19920;-91
2021/04/08 13:40:35;;;;;;;;;;;6.40;87.90;;;;;;4876571;29;19911;-90
2021/04/08 13:43:01;;;;;;;;;;;6.60;85.50;;;;;;4891541;29;19919;-89
2021/04/08 13:45:26;;;;;;;;;;;6.70;84.00;;;;;;4883886;29;19956;-87
2021/04/08 13:47:52;;;;;;;;;;;6.60;85.30;;;;;;4886333;29;19912;-90
2021/04/08 13:50:17;;;;;;;;;;;6.40;85.50;;;;;;4892271;29;20010;-90
2021/04/08 13:52:43;;;;;;;;;;;6.20;86.30;;;;;;4886709;29;20450;-89
2021/04/08 13:55:12;;;;;;;;;;;5.90;88.30;;;;;;4887716;29;20010;-89
2021/04/08 13:57:38;;;;;;;;;;;5.80;88.80;;;;;;4885596;29;19919;-91
2021/04/08 14:00:08;;;;;;;;;;;5.60;89.50;;;;;;4887062;29;19915;-88
2021/04/08 14:02:34;;;;;;;;;;;5.40;90.00;;;;;;4866522;29;20367;-88
2021/04/08 14:04:59;;;;;;;;;;;5.30;90.30;;;;;;4886247;29;19912;-87
2021/04/08 14:07:25;;;;;;;;;;;5.20;90.90;;;;;;4886643;29;19911;-88
2021/04/08 14:09:51;;;;;;;;;;;5.20;91.20;;;;;;4879134;29;20370;-87
2021/04/08 14:12:17;;;;;;;;;;;5.30;91.50;;;;;;4863184;29;19920;-89
2021/04/08 14:14:42;;;;;;;;;;;5.30;91.30;;;;;;4881900;29;19923;-86
2021/04/08 14:17:08;;;;;;;;;;;5.40;91.30;;;;;;4883249;29;19937;-89
2021/04/08 14:19:33;;;;;;;;;;;5.50;91.20;;;;;;4885457;29;20346;-90
2021/04/08 14:21:59;;;;;;;;;;;5.60;90.90;;;;;;4883027;29;19923;-89
2021/04/08 14:24:24;;;;;;;;;;;5.60;90.90;;;;;;4885286;29;20286;-92
2021/04/08 14:26:50;;;;;;;;;;;5.70;90.50;;;;;;4883530;29;20729;-88
2021/04/08 14:29:16;;;;;;;;;;;5.70;90.80;;;;;;4886003;29;19924;-88
2021/04/08 14:31:42;;;;;;;;;;;5.70;91.20;;;;;;4881303;29;19924;-89